sensor_id;sensor_type;location;lat;lon;timestamp;pressure;altitude;pressure_sealevel;temperature;humidity
64294;BME280;50636;45.596;5.258;2023-02-23T00:00:40;98422.78;;;14.46;74.72
64294;BME280;50636;45.596;5.258;2023-02-23T00:03:20;98426.34;;;14.52;72.93
64294;BME280;50636;45.596;5.258;2023-02-23T00:05:50;98421.06;;;14.52;72.42
64294;BME280;50636;45.596;5.258;2023-02-23T00:08:27;98423.47;;;14.53;72.41
64294;BME280;50636;45.596;5.258;2023-02-23T00:10:55;98417.97;;;14.67;71.36
64294;BME280;50636;45.596;5.258;2023-02-23T00:13:25;98414.72;;;14.76;70.46
64294;BME280;50636;45.596;5.258;2023-02-23T00:15:58;98418.53;;;14.69;70.06
64294;BME280;50636;45.596;5.258;2023-02-23T00:18:34;98415.88;;;14.69;69.96
64294;BME280;50636;45.596;5.258;2023-02-23T00:21:23;98408.22;;;14.55;69.92
64294;BME280;50636;45.596;5.258;2023-02-23T00:23:54;98409.84;;;14.45;68.49
64294;BME280;50636;45.596;5.258;2023-02-23T00:26:46;98403.22;;;14.18;69.60
64294;BME280;50636;45.596;5.258;2023-02-23T00:29:26;98408.59;;;14.12;69.91
64294;BME280;50636;45.596;5.258;2023-02-23T00:31:54;98403.53;;;14.22;70.33
64294;BME280;50636;45.596;5.258;2023-02-23T00:34:20;98408.34;;;14.37;70.04
64294;BME280;50636;45.596;5.258;2023-02-23T00:36:53;98401.31;;;14.54;69.54
64294;BME280;50636;45.596;5.258;2023-02-23T00:39:20;98405.31;;;14.69;70.20
64294;BME280;50636;45.596;5.258;2023-02-23T00:42:01;98411.41;;;14.81;69.79
64294;BME280;50636;45.596;5.258;2023-02-23T00:44:30;98400.53;;;14.94;69.41
64294;BME280;50636;45.596;5.258;2023-02-23T00:47:06;98413.94;;;15.05;67.62
64294;BME280;50636;45.596;5.258;2023-02-23T00:49:33;98404.50;;;15.09;67.61
64294;BME280;50636;45.596;5.258;2023-02-23T00:52:08;98401.47;;;15.17;67.42
64294;BME280;50636;45.596;5.258;2023-02-23T00:54:44;98399.84;;;15.28;67.27
64294;BME280;50636;45.596;5.258;2023-02-23T00:57:24;98397.81;;;15.18;66.74
64294;BME280;50636;45.596;5.258;2023-02-23T01:00:09;98407.22;;;14.97;67.48
64294;BME280;50636;45.596;5.258;2023-02-23T01:03:08;98401.63;;;14.82;68.02
64294;BME280;50636;45.596;5.258;2023-02-23T01:05:50;98400.88;;;14.69;66.85
64294;BME280;50636;45.596;5.258;2023-02-23T01:08:29;98398.81;;;14.60;67.57
64294;BME280;50636;45.596;5.258;2023-02-23T01:11:14;98402.25;;;14.60;68.28
64294;BME280;50636;45.596;5.258;2023-02-23T01:13:43;98406.38;;;14.68;68.83
64294;BME280;50636;45.596;5.258;2023-02-23T01:16:30;98407.72;;;14.70;68.20
64294;BME280;50636;45.596;5.258;2023-02-23T01:18:59;98405.94;;;14.59;68.73
64294;BME280;50636;45.596;5.258;2023-02-23T01:22:00;98404.31;;;14.46;67.91
64294;BME280;50636;45.596;5.258;2023-02-23T01:24:27;98407.44;;;14.43;68.65
64294;BME280;50636;45.596;5.258;2023-02-23T01:27:00;98399.50;;;14.43;68.55
64294;BME280;50636;45.596;5.258;2023-02-23T01:29:27;98399.50;;;14.43;69.14
64294;BME280;50636;45.596;5.258;2023-02-23T01:31:54;98404.22;;;14.29;68.86
64294;BME280;50636;45.596;5.258;2023-02-23T01:34:20;98392.97;;;14.10;69.17
64294;BME280;50636;45.596;5.258;2023-02-23T01:36:47;98397.59;;;14.03;68.38
64294;BME280;50636;45.596;5.258;2023-02-23T01:39:17;98397.00;;;13.89;68.09
64294;BME280;50636;45.596;5.258;2023-02-23T01:41:45;98400.19;;;13.79;68.58
64294;BME280;50636;45.596;5.258;2023-02-23T01:46:42;98387.59;;;13.82;69.88
64294;BME280;50636;45.596;5.258;2023-02-23T01:49:16;98387.72;;;13.75;70.55
64294;BME280;50636;45.596;5.258;2023-02-23T01:51:49;98384.72;;;13.71;70.46
64294;BME280;50636;45.596;5.258;2023-02-23T01:54:23;98374.94;;;13.48;70.66
64294;BME280;50636;45.596;5.258;2023-02-23T01:56:59;98376.84;;;13.29;71.29
64294;BME280;50636;45.596;5.258;2023-02-23T01:59:32;98382.97;;;13.23;71.13
64294;BME280;50636;45.596;5.258;2023-02-23T02:02:02;98373.50;;;13.22;71.66
64294;BME280;50636;45.596;5.258;2023-02-23T02:04:33;98370.84;;;13.22;71.75
64294;BME280;50636;45.596;5.258;2023-02-23T02:07:19;98377.94;;;13.22;72.25
64294;BME280;50636;45.596;5.258;2023-02-23T02:09:51;98369.00;;;13.23;72.45
64294;BME280;50636;45.596;5.258;2023-02-23T02:12:38;98367.38;;;13.22;72.93
64294;BME280;50636;45.596;5.258;2023-02-23T02:15:06;98360.41;;;13.27;72.72
64294;BME280;50636;45.596;5.258;2023-02-23T02:42:39;98347.53;;;12.77;73.53
64294;BME280;50636;45.596;5.258;2023-02-23T02:55:13;98341.38;;;12.53;74.45
64294;BME280;50636;45.596;5.258;2023-02-23T02:57:56;98341.09;;;12.43;74.45
64294;BME280;50636;45.596;5.258;2023-02-23T03:00:47;98340.22;;;12.30;74.88
64294;BME280;50636;45.596;5.258;2023-02-23T03:03:35;98340.22;;;12.30;75.22
64294;BME280;50636;45.596;5.258;2023-02-23T03:13:33;98332.97;;;12.07;76.09
64294;BME280;50636;45.596;5.258;2023-02-23T03:19:35;98325.81;;;11.96;76.58
64294;BME280;50636;45.596;5.258;2023-02-23T03:41:54;98321.41;;;11.65;77.75
64294;BME280;50636;45.596;5.258;2023-02-23T03:44:44;98316.38;;;11.63;77.31
64294;BME280;50636;45.596;5.258;2023-02-23T03:47:39;98324.28;;;11.63;77.56
64294;BME280;50636;45.596;5.258;2023-02-23T03:50:34;98322.28;;;11.58;77.32
64294;BME280;50636;45.596;5.258;2023-02-23T03:57:03;98319.13;;;11.50;77.80
64294;BME280;50636;45.596;5.258;2023-02-23T04:00:02;98323.78;;;11.48;77.62
64294;BME280;50636;45.596;5.258;2023-02-23T04:03:07;98320.88;;;11.56;77.62
64294;BME280;50636;45.596;5.258;2023-02-23T04:06:17;98323.34;;;11.51;77.19
64294;BME280;50636;45.596;5.258;2023-02-23T04:09:23;98326.41;;;11.48;77.87
64294;BME280;50636;45.596;5.258;2023-02-23T04:15:32;98327.03;;;11.68;77.13
64294;BME280;50636;45.596;5.258;2023-02-23T04:18:02;98320.19;;;11.67;77.49
64294;BME280;50636;45.596;5.258;2023-02-23T04:20:31;98318.16;;;11.69;77.47
64294;BME280;50636;45.596;5.258;2023-02-23T04:22:58;98317.50;;;11.74;77.20
64294;BME280;50636;45.596;5.258;2023-02-23T04:25:25;98310.28;;;11.69;76.46
64294;BME280;50636;45.596;5.258;2023-02-23T04:28:07;98309.38;;;11.57;76.03
64294;BME280;50636;45.596;5.258;2023-02-23T04:30:41;98315.09;;;11.47;76.29
64294;BME280;50636;45.596;5.258;2023-02-23T04:33:27;98313.38;;;11.34;76.57
64294;BME280;50636;45.596;5.258;2023-02-23T04:36:17;98312.38;;;11.35;76.82
64294;BME280;50636;45.596;5.258;2023-02-23T04:39:02;98315.97;;;11.41;76.36
64294;BME280;50636;45.596;5.258;2023-02-23T04:41:41;98319.41;;;11.42;76.59
64294;BME280;50636;45.596;5.258;2023-02-23T04:44:25;98309.28;;;11.45;76.64
64294;BME280;50636;45.596;5.258;2023-02-23T04:47:13;98316.91;;;11.47;76.00
64294;BME280;50636;45.596;5.258;2023-02-23T04:49:55;98312.09;;;11.44;76.12
64294;BME280;50636;45.596;5.258;2023-02-23T04:52:39;98307.84;;;11.43;76.11
64294;BME280;50636;45.596;5.258;2023-02-23T04:55:24;98312.78;;;11.32;75.43
64294;BME280;50636;45.596;5.258;2023-02-23T04:58:02;98306.63;;;11.20;76.10
64294;BME280;50636;45.596;5.258;2023-02-23T05:00:30;98315.28;;;11.20;75.98
64294;BME280;50636;45.596;5.258;2023-02-23T05:03:16;98311.88;;;11.20;76.07
64294;BME280;50636;45.596;5.258;2023-02-23T05:05:49;98311.47;;;11.23;75.98
64294;BME280;50636;45.596;5.258;2023-02-23T05:08:32;98310.53;;;11.36;75.91
64294;BME280;50636;45.596;5.258;2023-02-23T05:11:07;98314.53;;;11.45;75.88
64294;BME280;50636;45.596;5.258;2023-02-23T05:13:51;98313.81;;;11.56;75.26
64294;BME280;50636;45.596;5.258;2023-02-23T05:16:36;98308.44;;;11.45;74.48
64294;BME280;50636;45.596;5.258;2023-02-23T05:19:04;98309.56;;;11.30;74.31
64294;BME280;50636;45.596;5.258;2023-02-23T05:21:51;98308.59;;;10.99;74.48
64294;BME280;50636;45.596;5.258;2023-02-23T05:24:22;98312.13;;;10.80;75.04
64294;BME280;50636;45.596;5.258;2023-02-23T05:27:12;98312.56;;;10.70;74.83
64294;BME280;50636;45.596;5.258;2023-02-23T05:29:41;98305.19;;;10.61;75.19
64294;BME280;50636;45.596;5.258;2023-02-23T05:32:09;98310.25;;;10.55;75.59
64294;BME280;50636;45.596;5.258;2023-02-23T05:34:37;98308.66;;;10.54;75.86
64294;BME280;50636;45.596;5.258;2023-02-23T05:37:07;98310.03;;;10.57;76.05
64294;BME280;50636;45.596;5.258;2023-02-23T05:39:40;98308.41;;;10.56;76.09
64294;BME280;50636;45.596;5.258;2023-02-23T05:42:14;98312.88;;;10.55;76.70
64294;BME280;50636;45.596;5.258;2023-02-23T05:44:40;98315.84;;;10.66;76.45
64294;BME280;50636;45.596;5.258;2023-02-23T05:47:06;98315.03;;;10.65;75.95
64294;BME280;50636;45.596;5.258;2023-02-23T05:49:52;98308.22;;;10.57;75.85
64294;BME280;50636;45.596;5.258;2023-02-23T05:52:18;98306.63;;;10.56;76.01
64294;BME280;50636;45.596;5.258;2023-02-23T05:54:45;98304.59;;;10.52;76.38
64294;BME280;50636;45.596;5.258;2023-02-23T05:57:12;98298.16;;;10.48;76.43
64294;BME280;50636;45.596;5.258;2023-02-23T05:59:39;98310.28;;;10.42;76.50
64294;BME280;50636;45.596;5.258;2023-02-23T06:02:23;98305.03;;;10.42;77.20
64294;BME280;50636;45.596;5.258;2023-02-23T06:05:05;98304.63;;;10.45;77.66
64294;BME280;50636;45.596;5.258;2023-02-23T06:07:48;98311.91;;;10.43;77.57
64294;BME280;50636;45.596;5.258;2023-02-23T06:10:14;98311.47;;;10.46;77.71
64294;BME280;50636;45.596;5.258;2023-02-23T06:12:56;98311.47;;;10.53;77.71
64294;BME280;50636;45.596;5.258;2023-02-23T06:15:23;98309.84;;;10.58;76.78
64294;BME280;50636;45.596;5.258;2023-02-23T06:17:50;98312.22;;;10.67;76.39
64294;BME280;50636;45.596;5.258;2023-02-23T06:20:17;98310.97;;;10.69;76.15
64294;BME280;50636;45.596;5.258;2023-02-23T06:22:44;98313.00;;;10.67;76.10
64294;BME280;50636;45.596;5.258;2023-02-23T06:25:11;98316.22;;;10.69;76.21
64294;BME280;50636;45.596;5.258;2023-02-23T06:27:39;98312.81;;;10.69;76.23
64294;BME280;50636;45.596;5.258;2023-02-23T06:30:06;98314.19;;;10.71;75.51
64294;BME280;50636;45.596;5.258;2023-02-23T06:32:33;98311.78;;;10.70;74.53
64294;BME280;50636;45.596;5.258;2023-02-23T06:35:00;98318.31;;;10.54;74.12
64294;BME280;50636;45.596;5.258;2023-02-23T06:37:27;98320.03;;;10.35;74.79
64294;BME280;50636;45.596;5.258;2023-02-23T06:39:54;98321.84;;;10.34;74.69
64294;BME280;50636;45.596;5.258;2023-02-23T06:42:21;98322.44;;;10.23;73.87
64294;BME280;50636;45.596;5.258;2023-02-23T06:44:49;98320.09;;;10.08;74.43
64294;BME280;50636;45.596;5.258;2023-02-23T06:47:16;98325.31;;;10.08;75.09
64294;BME280;50636;45.596;5.258;2023-02-23T06:49:44;98327.91;;;10.15;75.31
64294;BME280;50636;45.596;5.258;2023-02-23T06:52:10;98324.06;;;10.31;75.26
64294;BME280;50636;45.596;5.258;2023-02-23T06:54:40;98324.00;;;10.44;74.54
64294;BME280;50636;45.596;5.258;2023-02-23T06:57:10;98330.00;;;10.58;74.75
64294;BME280;50636;45.596;5.258;2023-02-23T06:59:37;98327.91;;;10.73;74.71
64294;BME280;50636;45.596;5.258;2023-02-23T07:02:04;98338.75;;;10.84;74.44
64294;BME280;50636;45.596;5.258;2023-02-23T07:04:32;98334.28;;;10.91;74.01
64294;BME280;50636;45.596;5.258;2023-02-23T07:06:59;98334.66;;;10.94;73.14
64294;BME280;50636;45.596;5.258;2023-02-23T07:09:27;98341.47;;;11.02;73.53
64294;BME280;50636;45.596;5.258;2023-02-23T07:11:54;98346.88;;;11.14;73.48
64294;BME280;50636;45.596;5.258;2023-02-23T07:14:21;98345.72;;;11.35;73.02
64294;BME280;50636;45.596;5.258;2023-02-23T07:16:48;98345.94;;;11.33;71.87
64294;BME280;50636;45.596;5.258;2023-02-23T07:19:16;98357.13;;;11.22;72.08
64294;BME280;50636;45.596;5.258;2023-02-23T07:21:43;98353.03;;;11.26;72.40
64294;BME280;50636;45.596;5.258;2023-02-23T07:24:09;98357.50;;;11.26;71.57
64294;BME280;50636;45.596;5.258;2023-02-23T07:26:38;98355.41;;;11.34;71.32
64294;BME280;50636;45.596;5.258;2023-02-23T07:29:10;98357.63;;;11.37;71.02
64294;BME280;50636;45.596;5.258;2023-02-23T07:31:39;98358.75;;;11.48;71.47
64294;BME280;50636;45.596;5.258;2023-02-23T07:34:08;98359.25;;;11.64;71.10
64294;BME280;50636;45.596;5.258;2023-02-23T07:36:36;98360.66;;;11.85;70.72
64294;BME280;50636;45.596;5.258;2023-02-23T07:39:04;98358.53;;;12.00;69.36
64294;BME280;50636;45.596;5.258;2023-02-23T07:41:31;98353.50;;;12.17;69.39
64294;BME280;50636;45.596;5.258;2023-02-23T07:43:58;98350.28;;;12.33;69.11
64294;BME280;50636;45.596;5.258;2023-02-23T07:46:26;98351.03;;;12.41;67.71
64294;BME280;50636;45.596;5.258;2023-02-23T07:48:53;98348.59;;;12.39;68.38
64294;BME280;50636;45.596;5.258;2023-02-23T07:51:20;98348.75;;;12.93;68.20
64294;BME280;50636;45.596;5.258;2023-02-23T07:53:47;98348.03;;;13.82;65.92
64294;BME280;50636;45.596;5.258;2023-02-23T07:56:14;98343.69;;;14.51;63.93
64294;BME280;50636;45.596;5.258;2023-02-23T07:58:43;98345.09;;;15.28;62.34
64294;BME280;50636;45.596;5.258;2023-02-23T08:01:11;98335.94;;;15.82;60.24
64294;BME280;50636;45.596;5.258;2023-02-23T08:03:38;98339.47;;;16.09;59.04
64294;BME280;50636;45.596;5.258;2023-02-23T08:06:05;98335.13;;;16.20;58.00
64294;BME280;50636;45.596;5.258;2023-02-23T08:08:32;98330.97;;;16.29;56.92
64294;BME280;50636;45.596;5.258;2023-02-23T08:11:02;98341.13;;;16.37;57.01
64294;BME280;50636;45.596;5.258;2023-02-23T08:13:30;98340.66;;;16.63;56.41
64294;BME280;50636;45.596;5.258;2023-02-23T08:15:58;98341.09;;;16.32;55.72
64294;BME280;50636;45.596;5.258;2023-02-23T08:18:27;98339.50;;;15.92;56.39
64294;BME280;50636;45.596;5.258;2023-02-23T08:21:00;98345.50;;;15.71;57.12
64294;BME280;50636;45.596;5.258;2023-02-23T08:23:31;98342.81;;;15.66;57.19
64294;BME280;50636;45.596;5.258;2023-02-23T08:26:00;98347.19;;;15.43;57.01
64294;BME280;50636;45.596;5.258;2023-02-23T08:28:27;98339.31;;;15.14;58.10
64294;BME280;50636;45.596;5.258;2023-02-23T08:30:54;98341.47;;;15.01;59.54
64294;BME280;50636;45.596;5.258;2023-02-23T08:33:21;98327.16;;;15.81;57.92
64294;BME280;50636;45.596;5.258;2023-02-23T08:35:48;98328.44;;;16.40;56.25
64294;BME280;50636;45.596;5.258;2023-02-23T08:38:16;98327.72;;;16.44;55.49
64294;BME280;50636;45.596;5.258;2023-02-23T08:40:47;98325.53;;;16.36;55.81
64294;BME280;50636;45.596;5.258;2023-02-23T08:43:16;98326.44;;;16.47;55.30
64294;BME280;50636;45.596;5.258;2023-02-23T08:45:42;98322.13;;;16.90;55.37
64294;BME280;50636;45.596;5.258;2023-02-23T08:48:09;98327.09;;;17.08;53.69
64294;BME280;50636;45.596;5.258;2023-02-23T08:50:48;98327.94;;;17.46;53.73
64294;BME280;50636;45.596;5.258;2023-02-23T08:53:15;98334.44;;;17.66;53.29
64294;BME280;50636;45.596;5.258;2023-02-23T08:55:59;98331.91;;;17.81;51.66
64294;BME280;50636;45.596;5.258;2023-02-23T08:58:32;98328.66;;;17.36;52.21
64294;BME280;50636;45.596;5.258;2023-02-23T09:04:09;98332.28;;;16.76;54.85
64294;BME280;50636;45.596;5.258;2023-02-23T09:06:41;98332.09;;;17.05;54.63
64294;BME280;50636;45.596;5.258;2023-02-23T09:09:16;98333.44;;;17.34;54.12
64294;BME280;50636;45.596;5.258;2023-02-23T09:11:51;98339.91;;;17.49;54.04
64294;BME280;50636;45.596;5.258;2023-02-23T09:14:19;98339.75;;;17.66;53.08
64294;BME280;50636;45.596;5.258;2023-02-23T09:16:47;98335.63;;;18.33;52.06
64294;BME280;50636;45.596;5.258;2023-02-23T09:19:14;98341.34;;;18.62;50.66
64294;BME280;50636;45.596;5.258;2023-02-23T09:21:42;98335.19;;;18.51;50.72
64294;BME280;50636;45.596;5.258;2023-02-23T09:24:09;98331.44;;;18.42;50.22
64294;BME280;50636;45.596;5.258;2023-02-23T09:26:39;98339.81;;;18.19;50.49
64294;BME280;50636;45.596;5.258;2023-02-23T09:29:09;98340.34;;;18.15;51.18
64294;BME280;50636;45.596;5.258;2023-02-23T09:31:38;98337.66;;;18.05;50.35
64294;BME280;50636;45.596;5.258;2023-02-23T09:34:07;98339.28;;;17.74;52.23
64294;BME280;50636;45.596;5.258;2023-02-23T09:36:36;98333.66;;;18.08;52.48
64294;BME280;50636;45.596;5.258;2023-02-23T09:39:18;98336.00;;;18.52;52.06
64294;BME280;50636;45.596;5.258;2023-02-23T09:41:57;98333.47;;;18.88;50.25
64294;BME280;50636;45.596;5.258;2023-02-23T09:44:59;98332.44;;;19.30;48.67
64294;BME280;50636;45.596;5.258;2023-02-23T09:48:04;98327.66;;;19.52;48.17
64294;BME280;50636;45.596;5.258;2023-02-23T09:50:31;98328.72;;;21.07;46.09
64294;BME280;50636;45.596;5.258;2023-02-23T09:56:39;98322.97;;;24.24;40.25
64294;BME280;50636;45.596;5.258;2023-02-23T09:59:17;98316.31;;;25.22;38.77
64294;BME280;50636;45.596;5.258;2023-02-23T10:04:44;98312.53;;;24.87;37.33
64294;BME280;50636;45.596;5.258;2023-02-23T10:10:06;98325.13;;;23.15;40.20
64294;BME280;50636;45.596;5.258;2023-02-23T10:24:04;98307.22;;;23.29;40.20
64294;BME280;50636;45.596;5.258;2023-02-23T10:26:45;98315.94;;;22.83;40.27
64294;BME280;50636;45.596;5.258;2023-02-23T10:29:26;98311.03;;;22.90;39.84
64294;BME280;50636;45.596;5.258;2023-02-23T10:32:01;98313.22;;;22.26;41.40
64294;BME280;50636;45.596;5.258;2023-02-23T10:34:31;98318.81;;;21.77;41.86
64294;BME280;50636;45.596;5.258;2023-02-23T10:37:01;98314.03;;;21.73;42.44
64294;BME280;50636;45.596;5.258;2023-02-23T10:39:29;98313.59;;;22.14;41.42
64294;BME280;50636;45.596;5.258;2023-02-23T10:42:00;98318.16;;;22.14;41.29
64294;BME280;50636;45.596;5.258;2023-02-23T10:44:28;98315.50;;;21.85;40.71
64294;BME280;50636;45.596;5.258;2023-02-23T10:47:06;98314.84;;;21.40;41.94
64294;BME280;50636;45.596;5.258;2023-02-23T10:49:50;98309.63;;;21.24;42.43
64294;BME280;50636;45.596;5.258;2023-02-23T10:52:40;98313.75;;;21.11;42.92
64294;BME280;50636;45.596;5.258;2023-02-23T10:55:28;98310.47;;;20.80;43.11
64294;BME280;50636;45.596;5.258;2023-02-23T10:58:17;98304.56;;;20.88;43.35
64294;BME280;50636;45.596;5.258;2023-02-23T11:01:04;98302.78;;;21.77;41.72
64294;BME280;50636;45.596;5.258;2023-02-23T11:04:11;98299.25;;;22.29;41.15
64294;BME280;50636;45.596;5.258;2023-02-23T11:07:29;98292.22;;;23.15;39.94
64294;BME280;50636;45.596;5.258;2023-02-23T11:10:29;98286.03;;;23.80;38.69
64294;BME280;50636;45.596;5.258;2023-02-23T11:22:31;98268.09;;;27.33;33.32
64294;BME280;50636;45.596;5.258;2023-02-23T11:25:29;98257.84;;;28.54;31.12
64294;BME280;50636;45.596;5.258;2023-02-23T11:31:30;98250.88;;;29.65;28.89
64294;BME280;50636;45.596;5.258;2023-02-23T11:34:31;98251.19;;;30.78;27.47
64294;BME280;50636;45.596;5.258;2023-02-23T11:37:20;98242.16;;;31.62;26.97
64294;BME280;50636;45.596;5.258;2023-02-23T11:39:55;98239.59;;;32.01;25.80
64294;BME280;50636;45.596;5.258;2023-02-23T11:42:30;98246.03;;;31.61;25.43
64294;BME280;50636;45.596;5.258;2023-02-23T11:45:15;98246.44;;;31.32;25.59
64294;BME280;50636;45.596;5.258;2023-02-23T11:48:01;98246.63;;;30.95;25.90
64294;BME280;50636;45.596;5.258;2023-02-23T11:50:48;98243.22;;;29.92;26.92
64294;BME280;50636;45.596;5.258;2023-02-23T11:53:33;98236.25;;;28.54;28.79
64294;BME280;50636;45.596;5.258;2023-02-23T11:56:22;98237.97;;;27.22;29.73
64294;BME280;50636;45.596;5.258;2023-02-23T11:58:53;98241.16;;;26.11;31.95
64294;BME280;50636;45.596;5.258;2023-02-23T12:01:45;98235.34;;;25.15;32.69
64294;BME280;50636;45.596;5.258;2023-02-23T12:04:28;98235.19;;;24.16;34.05
64294;BME280;50636;45.596;5.258;2023-02-23T12:07:22;98237.41;;;23.26;35.59
64294;BME280;50636;45.596;5.258;2023-02-23T12:10:23;98235.88;;;23.06;36.84
64294;BME280;50636;45.596;5.258;2023-02-23T12:12:54;98232.84;;;23.12;36.96
64294;BME280;50636;45.596;5.258;2023-02-23T12:15:38;98233.13;;;23.11;37.58
64294;BME280;50636;45.596;5.258;2023-02-23T12:18:21;98229.66;;;22.91;37.84
64294;BME280;50636;45.596;5.258;2023-02-23T12:24:21;98225.66;;;22.13;38.91
64294;BME280;50636;45.596;5.258;2023-02-23T12:27:03;98230.59;;;21.58;40.42
64294;BME280;50636;45.596;5.258;2023-02-23T12:30:02;98237.56;;;21.24;40.83
64294;BME280;50636;45.596;5.258;2023-02-23T12:35:53;98222.44;;;21.14;41.69
64294;BME280;50636;45.596;5.258;2023-02-23T12:41:42;98219.63;;;21.30;42.09
64294;BME280;50636;45.596;5.258;2023-02-23T12:54:01;98191.09;;;25.84;34.48
64294;BME280;50636;45.596;5.258;2023-02-23T12:57:03;98195.88;;;25.96;33.40
64294;BME280;50636;45.596;5.258;2023-02-23T13:03:45;98187.41;;;24.18;34.85
64294;BME280;50636;45.596;5.258;2023-02-23T13:15:18;98190.97;;;23.03;36.14
64294;BME280;50636;45.596;5.258;2023-02-23T13:18:41;98185.38;;;22.09;37.21
64294;BME280;50636;45.596;5.258;2023-02-23T13:24:56;98191.28;;;22.06;38.14
64294;BME280;50636;45.596;5.258;2023-02-23T13:27:56;98190.72;;;22.09;38.35
64294;BME280;50636;45.596;5.258;2023-02-23T13:30:34;98189.13;;;22.08;39.13
64294;BME280;50636;45.596;5.258;2023-02-23T13:33:35;98190.97;;;22.32;38.87
64294;BME280;50636;45.596;5.258;2023-02-23T13:36:20;98173.50;;;22.40;38.10
64294;BME280;50636;45.596;5.258;2023-02-23T13:45:27;98172.28;;;23.30;36.16
64294;BME280;50636;45.596;5.258;2023-02-23T13:51:49;98173.81;;;22.14;37.20
64294;BME280;50636;45.596;5.258;2023-02-23T13:54:33;98178.66;;;21.69;37.91
64294;BME280;50636;45.596;5.258;2023-02-23T13:57:04;98163.97;;;21.42;38.64
64294;BME280;50636;45.596;5.258;2023-02-23T14:00:02;98166.78;;;20.73;40.06
64294;BME280;50636;45.596;5.258;2023-02-23T14:02:41;98167.25;;;20.41;40.61
64294;BME280;50636;45.596;5.258;2023-02-23T14:05:22;98171.97;;;20.10;41.02
64294;BME280;50636;45.596;5.258;2023-02-23T14:08:21;98169.47;;;19.79;41.46
64294;BME280;50636;45.596;5.258;2023-02-23T14:11:07;98165.78;;;19.60;42.18
64294;BME280;50636;45.596;5.258;2023-02-23T14:13:39;98164.75;;;19.45;42.99
64294;BME280;50636;45.596;5.258;2023-02-23T14:16:18;98160.84;;;19.17;43.36
64294;BME280;50636;45.596;5.258;2023-02-23T14:19:08;98156.91;;;18.84;43.42
64294;BME280;50636;45.596;5.258;2023-02-23T14:21:47;98156.88;;;18.68;44.53
64294;BME280;50636;45.596;5.258;2023-02-23T14:24:25;98160.59;;;18.57;45.06
64294;BME280;50636;45.596;5.258;2023-02-23T14:33:00;98152.88;;;19.07;45.12
64294;BME280;50636;45.596;5.258;2023-02-23T14:35:54;98142.72;;;19.29;44.13
64294;BME280;50636;45.596;5.258;2023-02-23T14:38:35;98150.44;;;19.36;44.04
64294;BME280;50636;45.596;5.258;2023-02-23T14:41:04;98146.69;;;19.42;44.13
64294;BME280;50636;45.596;5.258;2023-02-23T14:43:40;98147.13;;;19.65;43.90
64294;BME280;50636;45.596;5.258;2023-02-23T14:46:23;98153.63;;;20.03;43.38
64294;BME280;50636;45.596;5.258;2023-02-23T14:48:58;98149.28;;;20.23;42.79
64294;BME280;50636;45.596;5.258;2023-02-23T14:51:36;98149.53;;;20.26;42.68
64294;BME280;50636;45.596;5.258;2023-02-23T14:54:22;98150.97;;;20.08;42.72
64294;BME280;50636;45.596;5.258;2023-02-23T14:56:54;98144.84;;;20.03;42.92
64294;BME280;50636;45.596;5.258;2023-02-23T14:59:41;98145.25;;;19.81;43.38
64294;BME280;50636;45.596;5.258;2023-02-23T15:02:19;98147.69;;;19.56;43.53
64294;BME280;50636;45.596;5.258;2023-02-23T15:04:47;98143.78;;;19.39;43.93
64294;BME280;50636;45.596;5.258;2023-02-23T15:07:37;98146.97;;;19.35;44.34
64294;BME280;50636;45.596;5.258;2023-02-23T15:10:11;98142.97;;;19.38;44.23
64294;BME280;50636;45.596;5.258;2023-02-23T15:12:45;98152.28;;;19.35;44.25
64294;BME280;50636;45.596;5.258;2023-02-23T15:15:21;98144.81;;;19.38;44.04
64294;BME280;50636;45.596;5.258;2023-02-23T15:18:03;98148.81;;;19.35;44.30
64294;BME280;50636;45.596;5.258;2023-02-23T15:20:32;98150.19;;;19.22;44.16
64294;BME280;50636;45.596;5.258;2023-02-23T15:23:16;98139.03;;;19.15;44.31
64294;BME280;50636;45.596;5.258;2023-02-23T15:26:26;98141.19;;;19.08;44.76
64294;BME280;50636;45.596;5.258;2023-02-23T15:29:29;98138.78;;;19.11;45.05
64294;BME280;50636;45.596;5.258;2023-02-23T15:32:24;98136.13;;;19.16;45.34
64294;BME280;50636;45.596;5.258;2023-02-23T15:34:52;98145.13;;;19.36;45.20
64294;BME280;50636;45.596;5.258;2023-02-23T15:37:29;98137.63;;;19.48;44.60
64294;BME280;50636;45.596;5.258;2023-02-23T15:40:10;98138.44;;;19.39;44.53
64294;BME280;50636;45.596;5.258;2023-02-23T15:42:45;98143.84;;;19.18;44.88
64294;BME280;50636;45.596;5.258;2023-02-23T15:48:01;98138.53;;;18.72;45.40
64294;BME280;50636;45.596;5.258;2023-02-23T15:50:45;98142.53;;;18.54;45.67
64294;BME280;50636;45.596;5.258;2023-02-23T15:53:34;98138.28;;;18.48;45.93
64294;BME280;50636;45.596;5.258;2023-02-23T15:56:33;98136.91;;;18.35;46.63
64294;BME280;50636;45.596;5.258;2023-02-23T16:02:35;98131.09;;;18.43;46.26
64294;BME280;50636;45.596;5.258;2023-02-23T16:05:17;98135.09;;;18.46;46.08
64294;BME280;50636;45.596;5.258;2023-02-23T16:08:21;98136.41;;;18.38;46.15
64294;BME280;50636;45.596;5.258;2023-02-23T16:10:51;98135.88;;;18.36;46.18
64294;BME280;50636;45.596;5.258;2023-02-23T16:13:21;98136.94;;;18.50;46.13
64294;BME280;50636;45.596;5.258;2023-02-23T16:16:04;98133.75;;;18.64;45.55
64294;BME280;50636;45.596;5.258;2023-02-23T16:18:53;98134.81;;;18.68;45.44
64294;BME280;50636;45.596;5.258;2023-02-23T16:21:56;98131.63;;;18.71;45.76
64294;BME280;50636;45.596;5.258;2023-02-23T16:24:36;98132.97;;;18.84;45.62
64294;BME280;50636;45.596;5.258;2023-02-23T16:27:14;98128.97;;;18.86;45.91
64294;BME280;50636;45.596;5.258;2023-02-23T16:29:41;98137.22;;;18.85;46.18
64294;BME280;50636;45.596;5.258;2023-02-23T16:32:17;98139.34;;;18.83;46.35
64294;BME280;50636;45.596;5.258;2023-02-23T16:35:24;98140.44;;;18.82;47.20
64294;BME280;50636;45.596;5.258;2023-02-23T16:38:14;98138.31;;;18.84;47.12
64294;BME280;50636;45.596;5.258;2023-02-23T16:40:50;98143.84;;;18.77;47.24
64294;BME280;50636;45.596;5.258;2023-02-23T16:43:17;98141.47;;;18.65;47.25